»·PEaware :: N517GA CYXS-CYVR

N517GA :: CYXS-CYVR

FLIGHT INFORMATION

Flight Status: Arrived
Operator: Privately registered:
United States
More flights under this callsign
Pilot: John H. (7647)
Aircraft: DEHAVILLAND DH-6 TWIN OTTER
(DHC6)
More flights by this aircraft type
Origin: CYXS Prince George
Canada
Destination: CYVR Vancouver Intl
Canada
More flights between these airports :: More routes between these airports
Route: YXS YWL SEATN SEBOG
File this flight plan on PilotEdge
Remarks:
Altitude:
(Current/Filed)
10,500ft
Speed:
(Current/Filed)
145kts
Departed: 05-Jun-16 12:08 PM
Arrived: 05-Jun-16 02:16 PM
Distance/Time
Traveled:
282nm/2:08
Distance/Time
To Go:
Arrived

Flight Plot

Page will automatically refresh every two minutes.


Map Options




Map Legend


Flown Route
Filed Route
Departure Airport
Arrival Airport
Navaid (VOR, NDB)
Fix

Horizontal Profiles

Position Reports

Time Latitude Longitude Heading Altitude Ground
Speed
05-Jun-16 12:02 53.885905 -122.677941 30 2273ft 0kts
05-Jun-16 12:03 53.885905 -122.677941 30 2273ft 0kts
05-Jun-16 12:04 53.885905 -122.677941 30 2273ft 0kts
05-Jun-16 12:05 53.890183 -122.673686 31 2297ft 85kts
05-Jun-16 12:06 53.897561 -122.640546 101 3594ft 99kts
05-Jun-16 12:07 53.892641 -122.595077 86 5143ft 101kts
05-Jun-16 12:08 53.892005 -122.546999 81 6569ft 106kts
05-Jun-16 12:09 53.893056 -122.495759 80 7895ft 112kts
05-Jun-16 12:10 53.880505 -122.454716 178 9121ft 116kts
05-Jun-16 12:11 53.848842 -122.448684 180 10317ft 114kts
05-Jun-16 12:12 53.810097 -122.441800 178 10509ft 163kts
05-Jun-16 12:13 53.764017 -122.433431 178 10501ft 168kts
05-Jun-16 12:14 53.717444 -122.425069 178 10501ft 168kts
05-Jun-16 12:15 53.670892 -122.416751 178 10501ft 168kts
05-Jun-16 12:16 53.624297 -122.408447 178 10501ft 168kts
05-Jun-16 12:17 53.577670 -122.400158 178 10500ft 168kts
05-Jun-16 12:18 53.531133 -122.391905 178 10497ft 168kts
05-Jun-16 12:19 53.484986 -122.383736 178 10495ft 167kts
05-Jun-16 12:20 53.438786 -122.375577 178 10492ft 167kts
05-Jun-16 12:21 53.392824 -122.367471 178 10492ft 166kts
05-Jun-16 12:22 53.346628 -122.359346 178 10492ft 166kts
05-Jun-16 12:23 53.300567 -122.351262 178 10492ft 166kts
05-Jun-16 12:24 53.254774 -122.342787 178 10490ft 166kts
05-Jun-16 12:25 53.209018 -122.334653 178 10490ft 166kts
05-Jun-16 12:26 53.163106 -122.326626 178 10490ft 166kts
05-Jun-16 12:27 53.119166 -122.318943 179 10471ft 165kts
05-Jun-16 12:28 53.073695 -122.311077 179 10471ft 164kts
05-Jun-16 12:29 53.028122 -122.303187 179 10471ft 164kts
05-Jun-16 12:30 52.982751 -122.295345 179 10471ft 164kts
05-Jun-16 12:31 52.937207 -122.287489 179 10471ft 164kts
05-Jun-16 12:32 52.891846 -122.279680 179 10471ft 164kts
05-Jun-16 12:33 52.846397 -122.271873 179 10471ft 164kts
05-Jun-16 12:34 52.800948 -122.264082 179 10471ft 164kts
05-Jun-16 12:35 52.755553 -122.256317 179 10475ft 164kts
05-Jun-16 12:36 52.710450 -122.248618 179 10480ft 164kts
05-Jun-16 12:37 52.665009 -122.240877 179 10486ft 164kts
05-Jun-16 12:38 52.619639 -122.233165 179 10491ft 164kts
05-Jun-16 12:39 52.574269 -122.225468 179 10494ft 164kts
05-Jun-16 12:40 52.528676 -122.217750 179 10497ft 164kts
05-Jun-16 12:41 52.483186 -122.210065 179 10499ft 164kts
05-Jun-16 12:42 52.437801 -122.202414 179 10499ft 164kts
05-Jun-16 12:43 52.392310 -122.194761 179 10499ft 164kts
05-Jun-16 12:44 52.346728 -122.187108 179 10499ft 164kts
05-Jun-16 12:45 52.301264 -122.179491 179 10499ft 164kts
05-Jun-16 12:46 52.255819 -122.171893 179 10499ft 164kts
05-Jun-16 12:47 52.210817 -122.172512 190 10499ft 161kts
05-Jun-16 12:48 52.165989 -122.178310 190 10499ft 161kts
05-Jun-16 12:49 52.121298 -122.184231 190 10499ft 161kts
05-Jun-16 12:50 52.076512 -122.190178 190 10499ft 161kts
05-Jun-16 12:51 52.031787 -122.196110 190 10499ft 161kts
05-Jun-16 12:52 51.986874 -122.202055 190 10499ft 161kts
05-Jun-16 12:53 51.942221 -122.207954 190 10499ft 161kts
05-Jun-16 12:54 51.897580 -122.213840 190 10499ft 161kts
05-Jun-16 12:55 51.852828 -122.219729 190 10499ft 161kts
05-Jun-16 12:56 51.808006 -122.225616 190 10499ft 161kts
05-Jun-16 12:57 51.763247 -122.231482 190 10499ft 161kts
05-Jun-16 12:58 51.718499 -122.237335 190 10499ft 161kts
05-Jun-16 12:59 51.673650 -122.243190 190 10499ft 161kts
05-Jun-16 13:00 51.628891 -122.249022 190 10499ft 161kts
05-Jun-16 13:01 51.584052 -122.254853 190 10499ft 161kts
05-Jun-16 13:02 51.539403 -122.260646 190 10499ft 161kts
05-Jun-16 13:03 51.494478 -122.266465 190 10499ft 161kts
05-Jun-16 13:04 51.449872 -122.272231 190 10499ft 161kts
05-Jun-16 13:05 51.404989 -122.278022 190 10499ft 161kts
05-Jun-16 13:06 51.367694 -122.282824 190 10499ft 161kts
05-Jun-16 13:07 51.315459 -122.289538 190 10499ft 161kts
05-Jun-16 13:08 51.270739 -122.295273 190 10499ft 161kts
05-Jun-16 13:09 51.233423 -122.300051 190 10499ft 161kts
05-Jun-16 13:10 51.188554 -122.305784 190 10499ft 161kts
05-Jun-16 13:11 51.143853 -122.311486 190 10499ft 161kts
05-Jun-16 13:12 51.098997 -122.317196 190 10499ft 161kts
05-Jun-16 13:13 51.054279 -122.322877 190 10499ft 161kts
05-Jun-16 13:14 51.009474 -122.328559 190 10499ft 161kts
05-Jun-16 13:15 50.964670 -122.334229 190 10499ft 161kts
05-Jun-16 13:16 50.919861 -122.339889 190 10499ft 161kts
05-Jun-16 13:17 50.875362 -122.345499 190 10499ft 161kts
05-Jun-16 13:18 50.830666 -122.351124 190 10499ft 161kts
05-Jun-16 13:19 50.785739 -122.356766 190 10499ft 161kts
05-Jun-16 13:20 50.740938 -122.362382 190 10499ft 161kts
05-Jun-16 13:21 50.696920 -122.371449 202 10476ft 159kts
05-Jun-16 13:22 50.654758 -122.393953 205 10434ft 160kts
05-Jun-16 13:23 50.617052 -122.414508 205 10394ft 161kts
05-Jun-16 13:24 50.596970 -122.425476 205 10374ft 161kts
05-Jun-16 13:25 50.554521 -122.448649 205 10334ft 161kts
05-Jun-16 13:26 50.523351 -122.465644 205 10334ft 160kts
05-Jun-16 13:27 50.483459 -122.487416 203 10315ft 153kts
05-Jun-16 13:28 50.443499 -122.509083 204 10321ft 151kts
05-Jun-16 13:29 50.404123 -122.530424 204 10325ft 151kts
05-Jun-16 13:30 50.364364 -122.551942 204 10333ft 151kts
05-Jun-16 13:31 50.324375 -122.573559 204 10340ft 152kts
05-Jun-16 13:32 50.284160 -122.595259 204 10345ft 153kts
05-Jun-16 13:33 50.243997 -122.616892 205 10349ft 153kts
05-Jun-16 13:34 50.203510 -122.638657 205 10351ft 154kts
05-Jun-16 13:35 50.163235 -122.660543 204 10354ft 154kts
05-Jun-16 13:36 50.122589 -122.682574 204 10354ft 154kts
05-Jun-16 13:37 50.081938 -122.704358 204 10354ft 154kts
05-Jun-16 13:38 50.041248 -122.726084 204 10354ft 154kts
05-Jun-16 13:39 50.000496 -122.747796 204 10354ft 154kts
05-Jun-16 13:40 49.959741 -122.769471 204 10354ft 154kts
05-Jun-16 13:41 49.919112 -122.791039 204 10353ft 154kts
05-Jun-16 13:42 49.884149 -122.809568 204 10354ft 154kts
05-Jun-16 13:43 49.844617 -122.830489 204 10510ft 152kts
05-Jun-16 13:44 49.804159 -122.851859 204 10509ft 154kts
05-Jun-16 13:45 49.763686 -122.873196 204 10509ft 154kts
05-Jun-16 13:46 49.723635 -122.894276 204 10509ft 154kts
05-Jun-16 13:47 49.682996 -122.915628 204 10509ft 154kts
05-Jun-16 13:48 49.642423 -122.936885 204 10509ft 154kts
05-Jun-16 13:49 49.601906 -122.958095 204 10509ft 154kts
05-Jun-16 13:50 49.561137 -122.979408 204 10509ft 154kts
05-Jun-16 13:51 49.520544 -123.000592 204 10509ft 154kts
05-Jun-16 13:52 49.480222 -123.021597 204 10240ft 152kts
05-Jun-16 13:53 49.440298 -123.042358 204 9602ft 153kts
05-Jun-16 13:54 49.399918 -123.015012 155 9017ft 166kts
05-Jun-16 13:55 49.360210 -122.980262 155 7875ft 165kts
05-Jun-16 13:56 49.320641 -122.945886 155 6739ft 163kts
05-Jun-16 13:57 49.281522 -122.911969 154 5677ft 161kts
05-Jun-16 13:58 49.242957 -122.878594 154 4686ft 159kts
05-Jun-16 13:59 49.204843 -122.845649 154 3772ft 155kts
05-Jun-16 14:00 49.167177 -122.815455 178 2880ft 149kts
05-Jun-16 14:01 49.161520 -122.854104 298 2503ft 113kts
05-Jun-16 14:02 49.169281 -122.890180 283 2508ft 105kts
05-Jun-16 14:03 49.175646 -122.940998 278 2508ft 104kts
05-Jun-16 14:04 49.179561 -122.978069 282 2356ft 109kts
05-Jun-16 14:05 49.184581 -123.021726 283 1798ft 65kts
05-Jun-16 14:06 49.187286 -123.045167 284 1499ft 52kts
05-Jun-16 14:07 49.189406 -123.063552 283 1277ft 52kts
05-Jun-16 14:08 49.191946 -123.085712 283 996ft 53kts
05-Jun-16 14:09 49.194493 -123.107996 283 714ft 52kts
05-Jun-16 14:10 49.196873 -123.128848 284 453ft 47kts
05-Jun-16 14:11 49.199127 -123.148602 283 223ft 48kts
05-Jun-16 14:12 49.201337 -123.167959 279 21ft 44kts
05-Jun-16 14:13 49.201024 -123.183657 280 20ft 28kts
05-Jun-16 14:14 49.200327 -123.184050 167 20ft 0kts
05-Jun-16 14:15 49.200327 -123.184050 167 20ft 0kts
05-Jun-16 14:16 49.200327 -123.184050 167 20ft 0kts
05-Jun-16 14:17 49.200327 -123.184050 167 20ft 0kts
05-Jun-16 14:18 49.200327 -123.184050 167 20ft 0kts
05-Jun-16 14:19 49.200327 -123.184050 167 20ft 0kts
05-Jun-16 14:20 49.200327 -123.184050 167 20ft 0kts
05-Jun-16 14:21 49.200327 -123.184050 167 20ft 0kts
05-Jun-16 14:22 49.200327 -123.184050 167 20ft 0kts
05-Jun-16 14:23 49.200327 -123.184050 167 20ft 0kts
05-Jun-16 14:24 49.200327 -123.184050 167 20ft 0kts
05-Jun-16 14:25 49.200327 -123.184050 167 20ft 0kts
05-Jun-16 14:26 49.200327 -123.184050 167 20ft 0kts
05-Jun-16 14:27 49.200327 -123.184050 167 20ft 0kts

Navigation Log

Ident Type
1. CYXS Airport
2. YXS Navaid
3. YWL Navaid
4. SEATN Fix
5. SEBOG Fix
6. CYVR Airport